createdAt,value
2023-02-09T00:00:05.836Z,26.00
2023-02-09T00:02:40.540Z,20.35
2023-02-09T00:05:08.768Z,21.95
2023-02-09T00:07:35.539Z,20.25
2023-02-09T00:10:05.636Z,21.10
2023-02-09T00:12:52.200Z,24.27
2023-02-09T00:15:18.994Z,25.88
2023-02-09T00:17:51.321Z,23.77
2023-02-09T00:20:19.359Z,23.13
2023-02-09T00:22:49.838Z,21.67
2023-02-09T00:25:17.392Z,20.88
2023-02-09T00:27:52.555Z,23.60
2023-02-09T00:30:23.410Z,24.40
2023-02-09T00:39:13.494Z,22.02
2023-02-09T00:41:59.238Z,19.67
2023-02-09T00:44:25.970Z,22.10
2023-02-09T00:47:20.919Z,28.95
2023-02-09T00:49:47.589Z,24.52
2023-02-09T00:52:14.342Z,24.50
2023-02-09T00:54:41.129Z,20.63
2023-02-09T01:03:00.572Z,25.30
2023-02-09T01:05:27.210Z,22.50
2023-02-09T01:08:01.156Z,23.02
2023-02-09T01:11:01.722Z,24.40
2023-02-09T01:13:28.385Z,20.52
2023-02-09T01:15:56.347Z,22.70
2023-02-09T01:18:24.065Z,26.95
2023-02-09T01:21:11.202Z,23.02
2023-02-09T01:24:02.894Z,24.27
2023-02-09T01:26:40.069Z,22.20
2023-02-09T01:29:06.941Z,22.88
2023-02-09T01:31:40.372Z,28.42
2023-02-09T01:34:07.170Z,25.02
2023-02-09T01:36:33.794Z,27.02
2023-02-09T01:39:03.043Z,22.92
2023-02-09T01:41:38.102Z,21.50
2023-02-09T01:44:16.229Z,30.92
2023-02-09T01:46:49.996Z,25.27
2023-02-09T01:49:22.378Z,25.35
2023-02-09T01:52:06.695Z,23.73
2023-02-09T01:54:38.778Z,25.38
2023-02-09T01:57:22.366Z,22.60
2023-02-09T01:59:59.828Z,25.33
2023-02-09T02:02:31.110Z,28.98
2023-02-09T02:05:01.792Z,23.00
2023-02-09T02:07:51.892Z,25.60
2023-02-09T02:10:18.794Z,25.63
2023-02-09T02:12:45.538Z,26.98
2023-02-09T02:15:15.943Z,21.23
2023-02-09T02:18:03.605Z,21.90
2023-02-09T02:20:42.478Z,22.95
2023-02-09T02:23:15.275Z,22.77
2023-02-09T02:28:28.223Z,25.92
2023-02-09T02:31:25.655Z,26.25
2023-02-09T02:34:16.685Z,22.67
2023-02-09T02:36:58.611Z,23.35
2023-02-09T02:40:08.691Z,28.87
2023-02-09T02:42:48.721Z,32.08
2023-02-09T02:45:33.266Z,27.85
2023-02-09T02:48:19.342Z,26.23
2023-02-09T02:51:04.893Z,25.33
2023-02-09T02:53:36.838Z,25.80
2023-02-09T02:56:18.243Z,25.17
2023-02-09T02:58:47.595Z,28.83
2023-02-09T03:01:17.867Z,24.08
2023-02-09T03:03:48.931Z,25.77
2023-02-09T03:06:19.484Z,26.00
2023-02-09T03:08:55.340Z,26.92
2023-02-09T03:11:27.308Z,24.42
2023-02-09T03:14:30.405Z,20.30
2023-02-09T03:21:31.446Z,26.05
2023-02-09T03:24:13.596Z,24.98
2023-02-09T03:27:03.891Z,28.88
2023-02-09T03:29:33.115Z,21.40
2023-02-09T03:32:01.310Z,27.42
2023-02-09T03:34:30.702Z,29.33
2023-02-09T03:37:37.446Z,26.40
2023-02-09T03:40:04.474Z,22.98
2023-02-09T03:42:32.360Z,20.92
2023-02-09T03:47:52.308Z,25.95
2023-02-09T03:50:24.826Z,27.00
2023-02-09T03:52:51.401Z,26.25
2023-02-09T03:55:19.149Z,24.88
2023-02-09T03:57:50.644Z,25.05
2023-02-09T04:00:17.521Z,28.02
2023-02-09T04:02:44.261Z,29.73
2023-02-09T04:05:38.726Z,28.50
2023-02-09T04:08:09.584Z,26.13
2023-02-09T04:10:40.105Z,21.35
2023-02-09T04:13:07.173Z,26.33
2023-02-09T04:15:33.823Z,29.38
2023-02-09T04:18:02.768Z,32.05
2023-02-09T04:20:29.422Z,27.65
2023-02-09T04:23:01.619Z,31.90
2023-02-09T04:25:32.357Z,35.85
2023-02-09T04:28:02.706Z,37.42
2023-02-09T04:30:37.406Z,37.17
2023-02-09T04:33:15.535Z,27.83
2023-02-09T04:35:44.819Z,28.27
2023-02-09T04:38:12.680Z,30.80
2023-02-09T04:40:45.702Z,28.38
2023-02-09T04:43:15.683Z,27.90
2023-02-09T04:45:45.220Z,31.95
2023-02-09T04:48:14.862Z,27.48
2023-02-09T04:50:44.836Z,32.72
2023-02-09T04:53:14.612Z,27.52
2023-02-09T04:55:42.865Z,30.95
2023-02-09T04:58:35.848Z,28.63
2023-02-09T05:03:32.927Z,25.55
2023-02-09T05:06:02.589Z,24.50
2023-02-09T05:08:29.581Z,22.80
2023-02-09T05:10:56.612Z,26.85
2023-02-09T05:13:25.121Z,22.17
2023-02-09T05:15:53.495Z,32.03
2023-02-09T05:18:20.697Z,39.50
2023-02-09T05:20:47.910Z,35.08
2023-02-09T05:23:17.668Z,41.75
2023-02-09T05:25:46.656Z,37.53
2023-02-09T05:28:13.766Z,33.55
2023-02-09T05:30:43.296Z,35.50
2023-02-09T05:33:12.287Z,43.92
2023-02-09T05:35:42.071Z,44.40
2023-02-09T05:38:11.021Z,57.95
2023-02-09T05:40:46.321Z,54.45
2023-02-09T05:43:13.240Z,44.20
2023-02-09T05:45:46.677Z,37.63
2023-02-09T05:48:18.379Z,36.30
2023-02-09T05:50:46.941Z,32.90
2023-02-09T05:53:15.733Z,30.38
2023-02-09T05:55:46.754Z,32.15
2023-02-09T05:58:18.530Z,33.25
2023-02-09T06:00:45.321Z,37.05
2023-02-09T06:03:12.330Z,30.80
2023-02-09T06:05:43.394Z,27.20
2023-02-09T06:08:15.381Z,27.98
2023-02-09T06:10:42.403Z,36.05
2023-02-09T06:13:13.379Z,42.92
2023-02-09T06:15:44.287Z,44.60
2023-02-09T06:18:10.911Z,36.60
2023-02-09T06:20:39.947Z,39.72
2023-02-09T06:23:06.652Z,36.67
2023-02-09T06:25:39.068Z,41.90
2023-02-09T06:28:05.878Z,30.75
2023-02-09T06:30:35.134Z,36.95
2023-02-09T06:33:04.134Z,41.57
2023-02-09T06:35:30.944Z,41.60
2023-02-09T06:37:58.398Z,39.05
2023-02-09T06:40:25.219Z,38.35
2023-02-09T06:42:54.376Z,34.13
2023-02-09T06:45:22.706Z,46.50
2023-02-09T06:47:54.983Z,45.35
2023-02-09T06:50:21.858Z,44.28
2023-02-09T06:55:39.401Z,38.55
2023-02-09T06:58:08.498Z,30.77
2023-02-09T07:00:37.613Z,28.67
2023-02-09T07:03:04.479Z,34.63
2023-02-09T07:05:33.451Z,28.00
2023-02-09T07:08:04.434Z,30.52
2023-02-09T07:10:34.963Z,27.15
2023-02-09T07:13:01.614Z,28.70
2023-02-09T07:15:56.828Z,32.95
2023-02-09T07:21:19.168Z,35.63
2023-02-09T07:23:49.421Z,28.95
2023-02-09T07:43:51.010Z,26.95
2023-02-09T07:46:20.623Z,30.75
2023-02-09T07:49:33.103Z,26.98
2023-02-09T07:53:08.239Z,32.17
2023-02-09T07:59:37.149Z,33.25
2023-02-09T08:04:45.155Z,29.63
2023-02-09T08:07:11.881Z,30.95
2023-02-09T08:09:44.362Z,34.95
2023-02-09T08:12:56.816Z,32.13
2023-02-09T08:15:41.033Z,28.90
2023-02-09T08:18:19.147Z,31.05
2023-02-09T08:20:47.148Z,35.33
2023-02-09T08:23:24.443Z,47.22
2023-02-09T08:25:51.716Z,39.03
2023-02-09T08:28:19.712Z,47.95
2023-02-09T08:30:50.828Z,45.28
2023-02-09T08:33:20.488Z,44.07
2023-02-09T08:35:51.515Z,56.08
2023-02-09T08:38:19.274Z,49.63
2023-02-09T08:40:48.250Z,50.63
2023-02-09T08:43:19.521Z,48.78
2023-02-09T08:45:46.581Z,41.33
2023-02-09T08:48:18.081Z,33.85
2023-02-09T08:50:47.873Z,34.17
2023-02-09T08:53:19.096Z,34.03
2023-02-09T08:55:46.103Z,33.10
2023-02-09T08:58:12.978Z,31.00
2023-02-09T09:00:39.716Z,34.13
2023-02-09T09:03:09.037Z,31.40
2023-02-09T09:05:36.211Z,34.38
2023-02-09T09:08:03.309Z,37.50
2023-02-09T09:10:33.488Z,33.42
2023-02-09T09:13:05.950Z,32.80
2023-02-09T09:15:34.565Z,35.75
2023-02-09T09:18:05.441Z,32.63
2023-02-09T09:20:40.890Z,26.38
2023-02-09T09:23:12.957Z,26.15
2023-02-09T09:25:43.027Z,34.03
2023-02-09T09:28:12.267Z,31.80
2023-02-09T09:30:39.017Z,28.77
2023-02-09T09:33:08.578Z,25.60
2023-02-09T09:35:38.438Z,23.80
2023-02-09T09:38:07.658Z,33.17
2023-02-09T09:40:37.422Z,32.05
2023-02-09T09:43:07.993Z,31.88
2023-02-09T09:45:40.213Z,27.77
2023-02-09T09:48:24.631Z,27.45
2023-02-09T09:50:57.986Z,29.05
2023-02-09T09:53:34.428Z,28.83
2023-02-09T09:56:07.153Z,20.92
2023-02-09T10:01:15.347Z,26.92
2023-02-09T10:03:44.756Z,27.75
2023-02-09T10:06:16.876Z,29.80
2023-02-09T10:09:01.601Z,27.33
2023-02-09T10:11:42.634Z,32.78
2023-02-09T10:14:09.916Z,30.30
2023-02-09T10:16:39.821Z,21.90
2023-02-09T10:19:21.362Z,42.90
2023-02-09T10:21:49.055Z,29.70
2023-02-09T10:24:23.236Z,36.95
2023-02-09T10:27:10.021Z,37.78
2023-02-09T10:29:36.667Z,33.97
2023-02-09T10:32:15.025Z,40.03
2023-02-09T10:34:51.052Z,36.35
2023-02-09T10:37:35.024Z,29.40
2023-02-09T10:40:16.660Z,29.60
2023-02-09T10:42:59.051Z,30.02
2023-02-09T10:45:36.756Z,38.25
2023-02-09T10:48:15.671Z,33.55
2023-02-09T10:51:06.052Z,32.60
2023-02-09T10:53:56.701Z,27.05
2023-02-09T10:56:27.276Z,30.58
2023-02-09T10:59:21.968Z,27.77
2023-02-09T11:01:57.279Z,32.50
2023-02-09T11:04:39.938Z,34.05
2023-02-09T11:07:14.174Z,30.50
2023-02-09T11:09:51.164Z,33.05
2023-02-09T11:12:21.847Z,27.85
2023-02-09T11:14:51.049Z,31.02
2023-02-09T11:17:59.066Z,30.50
2023-02-09T11:20:35.020Z,29.15
2023-02-09T11:23:17.148Z,33.10
2023-02-09T11:25:56.490Z,33.00
2023-02-09T11:28:49.768Z,31.23
2023-02-09T11:31:33.833Z,31.48
2023-02-09T11:34:09.252Z,33.30
2023-02-09T11:36:41.115Z,26.75
2023-02-09T11:39:30.345Z,32.92
2023-02-09T11:42:33.178Z,27.80
2023-02-09T11:45:08.856Z,29.75
2023-02-09T11:50:11.148Z,31.00
2023-02-09T11:52:49.132Z,31.33
2023-02-09T11:55:32.461Z,35.33
2023-02-09T11:58:21.928Z,33.95
2023-02-09T12:01:10.009Z,38.67
2023-02-09T12:03:56.155Z,30.45
2023-02-09T12:06:27.462Z,33.35
2023-02-09T12:09:44.905Z,36.88
2023-02-09T12:12:43.035Z,30.90
2023-02-09T12:15:20.098Z,31.50
2023-02-09T12:17:59.007Z,33.85
2023-02-09T12:20:30.583Z,38.80
2023-02-09T12:23:25.306Z,35.42
2023-02-09T12:26:16.912Z,33.03
2023-02-09T12:29:21.268Z,31.48
2023-02-09T12:32:05.841Z,31.58
2023-02-09T12:34:39.430Z,29.40
2023-02-09T12:37:18.621Z,33.40
2023-02-09T12:40:09.342Z,29.02
2023-02-09T12:42:45.089Z,28.30
2023-02-09T12:45:46.673Z,28.30
2023-02-09T12:48:18.447Z,30.90
2023-02-09T12:50:54.923Z,32.53
2023-02-09T12:53:21.687Z,27.65
2023-02-09T12:56:01.143Z,27.50
2023-02-09T12:59:14.496Z,34.85
2023-02-09T13:02:06.426Z,35.30
2023-02-09T13:05:05.031Z,34.95
2023-02-09T13:08:16.588Z,27.85
2023-02-09T13:11:01.373Z,27.25
2023-02-09T13:13:45.424Z,27.05
2023-02-09T13:16:12.148Z,25.90
2023-02-09T13:18:47.737Z,29.85
2023-02-09T13:21:29.578Z,29.13
2023-02-09T13:24:02.341Z,29.08
2023-02-09T13:26:37.399Z,28.30
2023-02-09T13:29:21.997Z,30.30
2023-02-09T13:31:59.454Z,32.08
2023-02-09T13:34:48.677Z,27.23
2023-02-09T13:37:38.237Z,19.10
2023-02-09T13:40:47.316Z,27.90
2023-02-09T13:43:23.550Z,29.10
2023-02-09T13:45:57.391Z,28.15
2023-02-09T13:48:24.116Z,33.00
2023-02-09T13:50:54.380Z,27.45
2023-02-09T13:53:24.704Z,28.23
2023-02-09T13:55:57.364Z,32.88
2023-02-09T13:58:35.883Z,30.60
2023-02-09T14:01:09.616Z,27.05
2023-02-09T14:03:49.653Z,28.20
2023-02-09T14:06:32.661Z,29.95
2023-02-09T14:09:04.437Z,32.17
2023-02-09T14:11:43.411Z,25.83
2023-02-09T14:14:19.482Z,26.08
2023-02-09T14:17:25.433Z,24.88
2023-02-09T14:19:58.471Z,32.05
2023-02-09T14:25:26.762Z,28.08
2023-02-09T14:27:54.795Z,27.05
2023-02-09T14:30:27.145Z,25.85
2023-02-09T14:32:55.765Z,25.23
2023-02-09T14:35:27.465Z,23.90
2023-02-09T14:37:56.741Z,23.50
2023-02-09T14:40:26.294Z,29.10
2023-02-09T14:43:02.084Z,27.77
2023-02-09T14:45:38.351Z,22.40
2023-02-09T14:48:21.231Z,20.77
2023-02-09T14:53:47.412Z,22.60
2023-02-09T14:56:22.583Z,21.52
2023-02-09T14:58:51.391Z,17.65
2023-02-09T15:01:19.015Z,21.17
2023-02-09T15:03:46.711Z,22.17
2023-02-09T15:06:21.552Z,22.23
2023-02-09T15:08:48.186Z,37.92
2023-02-09T15:11:42.663Z,37.00
2023-02-09T15:14:13.184Z,30.83
2023-02-09T15:16:40.586Z,27.02
2023-02-09T15:19:15.756Z,22.05
2023-02-09T15:21:52.661Z,23.42
2023-02-09T15:24:28.600Z,23.83
2023-02-09T15:26:58.492Z,23.45
2023-02-09T15:29:28.596Z,29.02
2023-02-09T15:32:00.346Z,24.65
2023-02-09T15:34:26.990Z,22.38
2023-02-09T15:36:56.498Z,23.92
2023-02-09T15:39:30.626Z,19.88
2023-02-09T15:42:19.857Z,23.85
2023-02-09T15:45:13.647Z,28.73
2023-02-09T15:47:52.614Z,22.42
2023-02-09T15:50:22.607Z,22.25
2023-02-09T15:52:51.517Z,26.23
2023-02-09T15:55:22.509Z,26.10
2023-02-09T15:57:51.830Z,27.45
2023-02-09T16:00:28.799Z,25.92
2023-02-09T16:03:00.636Z,24.48
2023-02-09T16:05:29.406Z,25.33
2023-02-09T16:08:02.899Z,21.65
2023-02-09T16:10:30.675Z,30.90
2023-02-09T16:12:57.715Z,31.55
2023-02-09T16:15:27.784Z,35.65
2023-02-09T16:17:54.438Z,28.20
2023-02-09T16:20:26.141Z,24.90
2023-02-09T16:23:08.832Z,30.48
2023-02-09T16:25:44.490Z,36.03
2023-02-09T16:28:12.608Z,47.92
2023-02-09T16:31:00.979Z,47.72
2023-02-09T16:33:29.726Z,49.25
2023-02-09T16:36:00.965Z,58.15
2023-02-09T16:38:29.619Z,41.88
2023-02-09T16:40:56.376Z,31.30
2023-02-09T16:43:26.013Z,26.75
2023-02-09T16:46:03.576Z,26.15
2023-02-09T16:48:39.043Z,26.88
2023-02-09T16:53:47.052Z,25.52
2023-02-09T16:56:17.585Z,22.17
2023-02-09T16:58:48.627Z,30.45
2023-02-09T17:01:20.031Z,29.45
2023-02-09T17:03:54.383Z,27.70
2023-02-09T17:06:27.236Z,31.58
2023-02-09T17:08:55.811Z,33.83
2023-02-09T17:11:26.356Z,40.20
2023-02-09T17:13:53.401Z,51.80
2023-02-09T17:16:35.267Z,46.10
2023-02-09T17:19:03.953Z,28.83
2023-02-09T17:21:35.425Z,58.28
2023-02-09T17:24:15.650Z,32.92
2023-02-09T17:26:43.204Z,27.00
2023-02-09T17:29:11.126Z,31.65
2023-02-09T17:31:52.763Z,33.65
2023-02-09T17:34:26.200Z,32.38
2023-02-09T17:36:55.508Z,34.90
2023-02-09T17:39:22.154Z,37.30
2023-02-09T17:41:54.832Z,47.92
2023-02-09T17:47:19.154Z,60.30
2023-02-09T17:49:49.314Z,50.50
2023-02-09T17:52:17.715Z,35.33
2023-02-09T17:54:44.849Z,37.95
2023-02-09T17:57:16.818Z,24.35
2023-02-09T17:59:43.531Z,26.75
2023-02-09T18:02:22.882Z,20.83
2023-02-09T18:04:49.745Z,18.50
2023-02-09T18:07:19.561Z,19.98
2023-02-09T18:09:49.090Z,20.00
2023-02-09T18:12:21.075Z,29.45
2023-02-09T18:17:42.539Z,23.13
2023-02-09T18:20:15.430Z,22.50
2023-02-09T18:22:44.486Z,20.52
2023-02-09T18:25:40.990Z,19.45
2023-02-09T18:28:10.163Z,18.63
2023-02-09T18:30:39.349Z,23.52
2023-02-09T18:33:06.670Z,54.75
2023-02-09T18:35:35.223Z,100.78
2023-02-09T18:38:06.056Z,67.10
2023-02-09T18:40:33.567Z,33.50
2023-02-09T18:43:01.692Z,27.83
2023-02-09T18:45:29.875Z,26.02
2023-02-09T18:47:59.092Z,24.05
2023-02-09T18:50:32.961Z,22.30
2023-02-09T18:53:26.874Z,21.63
2023-02-09T18:55:53.616Z,15.82
2023-02-09T18:58:26.885Z,25.02
2023-02-09T19:00:54.467Z,25.45
2023-02-09T19:03:22.433Z,32.75
2023-02-09T19:05:51.224Z,26.63
2023-02-09T19:08:17.831Z,33.35
2023-02-09T19:10:47.148Z,29.00
2023-02-09T19:13:16.872Z,34.65
2023-02-09T19:15:48.304Z,28.15
2023-02-09T19:18:15.222Z,31.98
2023-02-09T19:20:45.326Z,72.47
2023-02-09T19:23:11.967Z,36.55
2023-02-09T19:25:46.426Z,49.75
2023-02-09T19:28:15.794Z,31.65
2023-02-09T19:30:51.804Z,26.13
2023-02-09T19:33:18.955Z,22.55
2023-02-09T19:36:14.511Z,27.00
2023-02-09T19:38:41.148Z,37.17
2023-02-09T19:41:11.485Z,38.42
2023-02-09T19:43:39.992Z,45.72
2023-02-09T19:46:09.490Z,38.20
2023-02-09T19:48:40.017Z,40.85
2023-02-09T19:51:07.242Z,47.20
2023-02-09T19:53:33.910Z,43.30
2023-02-09T19:56:03.026Z,44.08
2023-02-09T19:58:32.734Z,38.63
2023-02-09T20:01:07.112Z,39.47
2023-02-09T20:03:38.050Z,34.80
2023-02-09T20:06:08.530Z,35.17
2023-02-09T20:08:36.875Z,31.70
2023-02-09T20:11:07.153Z,29.80
2023-02-09T20:13:35.525Z,31.08
2023-02-09T20:16:13.829Z,33.03
2023-02-09T20:18:43.174Z,29.65
2023-02-09T20:21:12.321Z,35.37
2023-02-09T20:23:40.197Z,29.30
2023-02-09T20:26:21.867Z,32.05
2023-02-09T20:28:49.996Z,30.48
2023-02-09T20:31:19.601Z,33.22
2023-02-09T20:33:49.767Z,36.58
2023-02-09T20:36:17.825Z,37.58
2023-02-09T20:38:47.547Z,33.22
2023-02-09T20:41:17.145Z,28.88
2023-02-09T20:44:02.978Z,28.60
2023-02-09T20:46:53.270Z,31.85
2023-02-09T20:49:25.099Z,39.83
2023-02-09T20:51:52.004Z,44.60
2023-02-09T20:54:18.681Z,45.25
2023-02-09T20:56:54.062Z,38.80
2023-02-09T20:59:20.696Z,27.17
2023-02-09T21:01:47.563Z,64.50
2023-02-09T21:04:14.886Z,25.23
2023-02-09T21:06:42.217Z,23.98
2023-02-09T21:09:11.637Z,23.80
2023-02-09T21:11:38.736Z,21.48
2023-02-09T21:14:05.585Z,24.45
2023-02-09T21:16:37.370Z,29.08
2023-02-09T21:19:04.079Z,24.40
2023-02-09T21:21:30.694Z,22.73
2023-02-09T21:23:58.822Z,25.23
2023-02-09T21:26:25.814Z,27.02
2023-02-09T21:28:58.004Z,30.27
2023-02-09T21:31:27.010Z,31.17
2023-02-09T21:33:53.859Z,36.28
2023-02-09T21:36:20.606Z,47.22
2023-02-09T21:38:47.735Z,62.85
2023-02-09T21:41:39.599Z,58.90
2023-02-09T21:44:06.815Z,66.50
2023-02-09T21:46:33.754Z,49.47
2023-02-09T21:49:05.929Z,53.00
2023-02-09T21:51:33.095Z,51.67
2023-02-09T21:54:06.242Z,56.65
2023-02-09T21:56:35.544Z,56.83
2023-02-09T21:59:03.050Z,55.78
2023-02-09T22:01:33.681Z,61.40
2023-02-09T22:04:00.864Z,40.28
2023-02-09T22:06:29.591Z,36.85
2023-02-09T22:08:56.886Z,43.97
2023-02-09T22:11:23.475Z,39.72
2023-02-09T22:13:55.859Z,37.72
2023-02-09T22:16:24.678Z,32.80
2023-02-09T22:18:51.968Z,26.58
2023-02-09T22:21:21.899Z,34.53
2023-02-09T22:23:57.628Z,32.28
2023-02-09T22:26:24.443Z,36.63
2023-02-09T22:28:51.076Z,35.15
2023-02-09T22:31:22.186Z,30.02
2023-02-09T22:33:53.272Z,31.13
2023-02-09T22:36:24.893Z,31.23
2023-02-09T22:38:51.569Z,26.27
2023-02-09T22:41:22.749Z,31.77
2023-02-09T22:43:54.357Z,34.63
2023-02-09T22:46:24.287Z,37.80
2023-02-09T22:48:52.753Z,52.13
2023-02-09T22:51:23.013Z,52.33
2023-02-09T22:53:50.446Z,49.15
2023-02-09T22:56:19.986Z,44.47
2023-02-09T22:58:49.221Z,27.45
2023-02-09T23:01:17.023Z,32.33
2023-02-09T23:03:43.783Z,31.88
2023-02-09T23:06:14.258Z,26.73
2023-02-09T23:08:40.931Z,23.80
2023-02-09T23:11:17.006Z,36.05
2023-02-09T23:13:44.463Z,36.45
2023-02-09T23:16:17.710Z,33.78
2023-02-09T23:18:52.233Z,31.20
2023-02-09T23:21:23.086Z,25.63
2023-02-09T23:23:49.962Z,24.42
2023-02-09T23:26:18.826Z,22.83
2023-02-09T23:28:45.847Z,27.00
2023-02-09T23:31:19.247Z,26.27
2023-02-09T23:33:51.651Z,37.35
2023-02-09T23:36:31.227Z,27.20
2023-02-09T23:39:03.074Z,27.77
2023-02-09T23:41:35.174Z,27.73
2023-02-09T23:44:05.300Z,42.47
2023-02-09T23:46:32.014Z,40.60
2023-02-09T23:49:00.919Z,48.70
2023-02-09T23:51:32.751Z,40.47
2023-02-09T23:54:02.431Z,41.10
2023-02-09T23:56:35.839Z,40.92
2023-02-09T23:59:06.884Z,36.38
